createdAt,value
2024-03-25T00:03:11.765Z,6.13
2024-03-25T00:08:14.724Z,6.26
2024-03-25T00:13:17.629Z,6.43
2024-03-25T00:18:20.486Z,6.50
2024-03-25T00:23:23.351Z,6.50
2024-03-25T00:28:26.422Z,6.54
2024-03-25T00:33:29.380Z,6.61
2024-03-25T00:38:32.758Z,6.64
2024-03-25T00:43:35.651Z,6.70
2024-03-25T00:48:39.462Z,6.79
2024-03-25T00:53:43.283Z,6.79
2024-03-25T00:58:47.507Z,6.83
2024-03-25T01:03:50.371Z,6.87
2024-03-25T01:08:53.737Z,6.85
2024-03-25T01:13:56.786Z,6.83
2024-03-25T01:19:00.111Z,6.85
2024-03-25T01:24:03.343Z,6.87
2024-03-25T01:29:06.292Z,6.82
2024-03-25T01:34:09.136Z,6.87
2024-03-25T01:39:11.990Z,6.88
2024-03-25T01:44:14.832Z,6.84
2024-03-25T01:49:17.732Z,6.83
2024-03-25T01:54:21.033Z,6.81
2024-03-25T01:59:24.675Z,6.79
2024-03-25T02:04:28.267Z,6.80
2024-03-25T02:09:31.409Z,6.81
2024-03-25T02:14:34.406Z,6.79
2024-03-25T02:19:40.292Z,6.78
2024-03-25T02:24:44.939Z,6.78
2024-03-25T02:29:48.486Z,6.81
2024-03-25T02:34:52.924Z,6.80
2024-03-25T02:39:58.664Z,6.83
2024-03-25T02:45:01.467Z,6.82
2024-03-25T02:50:05.059Z,6.67
2024-03-25T02:55:08.167Z,6.65
2024-03-25T03:00:11.630Z,6.61
2024-03-25T03:05:14.599Z,6.60
2024-03-25T03:10:17.540Z,6.59
2024-03-25T03:15:20.415Z,6.59
2024-03-25T03:20:23.413Z,6.64
2024-03-25T03:25:26.399Z,6.72
2024-03-25T03:30:29.768Z,6.76
2024-03-25T03:35:37.230Z,6.78
2024-03-25T03:40:40.197Z,6.76
2024-03-25T03:45:43.054Z,6.78
2024-03-25T03:50:46.345Z,6.78
2024-03-25T03:55:56.391Z,6.76
2024-03-25T04:00:59.542Z,6.70
2024-03-25T04:06:09.202Z,6.65
2024-03-25T04:11:12.425Z,6.68
2024-03-25T04:16:15.651Z,6.75
2024-03-25T04:21:18.470Z,6.80
2024-03-25T04:26:21.351Z,6.85
2024-03-25T04:31:24.715Z,6.90
2024-03-25T04:36:28.923Z,6.99
2024-03-25T04:41:32.794Z,7.01
2024-03-25T04:46:35.640Z,7.00
2024-03-25T04:51:38.674Z,7.06
2024-03-25T04:56:41.848Z,7.10
2024-03-25T05:01:46.977Z,7.13
2024-03-25T05:06:49.972Z,7.16
2024-03-25T05:11:52.907Z,7.17
2024-03-25T05:16:55.852Z,7.25
2024-03-25T05:21:58.719Z,7.24
2024-03-25T05:27:02.236Z,7.28
2024-03-25T05:32:05.910Z,7.37
2024-03-25T05:37:10.230Z,7.47
2024-03-25T05:42:13.179Z,7.52
2024-03-25T05:47:16.050Z,7.69
2024-03-25T05:52:18.920Z,7.83
2024-03-25T05:57:21.926Z,7.95
2024-03-25T06:02:25.393Z,8.09
2024-03-25T06:07:28.230Z,8.14
2024-03-25T06:12:31.166Z,8.13
2024-03-25T06:17:34.212Z,8.03
2024-03-25T06:22:37.175Z,8.03
2024-03-25T06:27:39.988Z,8.03
2024-03-25T06:33:01.420Z,7.93
2024-03-25T06:38:04.780Z,7.79
2024-03-25T06:43:07.814Z,7.78
2024-03-25T06:48:11.056Z,7.71
2024-03-25T06:53:14.900Z,7.64
2024-03-25T06:58:18.483Z,7.61
2024-03-25T07:03:24.133Z,7.67
2024-03-25T07:08:28.485Z,7.75
2024-03-25T07:13:31.681Z,7.86
2024-03-25T07:18:35.213Z,7.90
2024-03-25T07:23:38.092Z,7.93
2024-03-25T07:28:40.967Z,7.91
2024-03-25T07:33:44.008Z,7.89
2024-03-25T07:38:46.937Z,7.94
2024-03-25T07:43:50.195Z,8.01
2024-03-25T07:48:53.187Z,8.06
2024-03-25T07:53:56.130Z,8.11
2024-03-25T07:59:00.850Z,8.10
2024-03-25T08:04:03.983Z,8.13
2024-03-25T08:09:06.817Z,8.11
2024-03-25T08:14:09.818Z,8.14
2024-03-25T08:19:13.190Z,8.19
2024-03-25T08:24:16.910Z,8.20
2024-03-25T08:29:19.810Z,8.22
2024-03-25T08:34:22.831Z,8.30
2024-03-25T08:39:25.912Z,8.31
2024-03-25T08:44:28.892Z,8.26
2024-03-25T08:49:31.845Z,8.21
2024-03-25T08:54:34.734Z,8.28
2024-03-25T08:59:37.833Z,8.49
2024-03-25T09:04:40.822Z,8.75
2024-03-25T09:10:01.897Z,8.89
2024-03-25T09:15:05.566Z,8.85
2024-03-25T09:20:17.439Z,8.89
2024-03-25T09:25:20.795Z,9.04
2024-03-25T09:30:23.764Z,9.11
2024-03-25T09:35:26.856Z,9.15
2024-03-25T09:40:30.620Z,9.16
2024-03-25T09:45:35.025Z,9.15
2024-03-25T09:50:38.319Z,9.23
2024-03-25T09:55:41.309Z,9.30
2024-03-25T10:00:44.243Z,9.33
2024-03-25T10:05:47.642Z,9.13
2024-03-25T10:10:52.614Z,8.85
2024-03-25T10:15:56.437Z,8.71
2024-03-25T10:20:59.372Z,8.76
2024-03-25T10:26:02.456Z,9.05
2024-03-25T10:31:06.817Z,9.26
2024-03-25T10:36:10.522Z,9.53
2024-03-25T10:41:18.081Z,9.68
2024-03-25T10:46:23.328Z,9.64
2024-03-25T10:51:27.917Z,9.59
2024-03-25T10:56:30.864Z,9.50
2024-03-25T11:01:34.512Z,9.56
2024-03-25T11:06:37.434Z,9.78
2024-03-25T11:11:40.416Z,9.95
2024-03-25T11:16:43.321Z,10.18
2024-03-25T11:21:46.389Z,10.36
2024-03-25T11:26:54.133Z,10.40
2024-03-25T11:32:01.339Z,10.25
2024-03-25T11:37:05.547Z,9.94
2024-03-25T11:42:10.189Z,9.52
2024-03-25T11:47:13.870Z,9.04
2024-03-25T11:52:19.163Z,8.73
2024-03-25T11:57:23.881Z,8.63
2024-03-25T12:02:27.665Z,8.65
2024-03-25T12:07:30.573Z,9.00
2024-03-25T12:12:34.332Z,9.60
2024-03-25T12:17:38.212Z,9.86
2024-03-25T12:22:41.785Z,10.15
2024-03-25T12:27:47.465Z,10.83
2024-03-25T12:32:51.996Z,11.28
2024-03-25T12:37:56.016Z,11.45
2024-03-25T12:42:58.971Z,11.22
2024-03-25T12:48:02.029Z,10.79
2024-03-25T12:53:05.377Z,10.42
2024-03-25T12:58:08.525Z,10.09
2024-03-25T13:03:12.941Z,9.73
2024-03-25T13:08:18.702Z,9.61
2024-03-25T13:13:22.168Z,9.92
2024-03-25T13:18:25.727Z,10.49
2024-03-25T13:23:28.608Z,11.11
2024-03-25T13:28:31.629Z,11.64
2024-03-25T13:33:34.628Z,12.08
2024-03-25T13:38:37.933Z,12.21
2024-03-25T13:43:44.268Z,12.21
2024-03-25T13:48:49.001Z,11.73
2024-03-25T13:53:51.981Z,11.25
2024-03-25T13:58:56.337Z,10.92
2024-03-25T14:03:59.421Z,10.19
2024-03-25T14:09:02.568Z,9.51
2024-03-25T14:14:05.673Z,9.27
2024-03-25T14:19:08.822Z,9.33
2024-03-25T14:24:11.781Z,9.46
2024-03-25T14:29:15.136Z,9.56
2024-03-25T14:34:18.058Z,9.63
2024-03-25T14:39:21.254Z,9.70
2024-03-25T14:44:24.384Z,9.74
2024-03-25T14:49:27.659Z,9.70
2024-03-25T14:54:39.228Z,9.82
2024-03-25T14:59:42.302Z,9.99
2024-03-25T15:04:45.560Z,10.17
2024-03-25T15:09:48.515Z,10.27
2024-03-25T15:14:51.437Z,10.29
2024-03-25T15:19:54.432Z,10.27
2024-03-25T15:24:57.452Z,10.17
2024-03-25T15:30:00.443Z,10.07
2024-03-25T15:35:04.180Z,9.94
2024-03-25T15:40:10.525Z,9.83
2024-03-25T15:45:13.528Z,9.78
2024-03-25T15:50:16.625Z,9.82
2024-03-25T15:55:20.083Z,9.76
2024-03-25T16:00:23.130Z,9.65
2024-03-25T16:05:26.292Z,9.62
2024-03-25T16:10:37.043Z,9.61
2024-03-25T16:15:39.992Z,9.57
2024-03-25T16:20:43.312Z,9.52
2024-03-25T16:25:46.345Z,9.45
2024-03-25T16:30:49.372Z,9.40
2024-03-25T16:35:52.683Z,9.36
2024-03-25T16:40:55.927Z,9.29
2024-03-25T16:45:59.733Z,9.26
2024-03-25T16:51:02.836Z,9.23
2024-03-25T16:56:07.775Z,9.21
2024-03-25T17:01:10.810Z,9.12
2024-03-25T17:06:13.922Z,8.92
2024-03-25T17:11:17.310Z,8.79
2024-03-25T17:16:20.305Z,8.62
2024-03-25T17:21:24.149Z,8.55
2024-03-25T17:26:27.266Z,8.46
2024-03-25T17:31:30.354Z,8.41
2024-03-25T17:36:33.582Z,8.38
2024-03-25T17:41:38.920Z,8.32
2024-03-25T17:46:43.134Z,8.33
2024-03-25T17:51:46.160Z,8.36
2024-03-25T17:56:49.252Z,8.44
2024-03-25T18:01:54.700Z,8.55
2024-03-25T18:06:59.751Z,8.63
2024-03-25T18:12:10.349Z,8.70
2024-03-25T18:17:18.436Z,8.71
2024-03-25T18:22:24.737Z,8.65
2024-03-25T18:27:34.739Z,8.54
2024-03-25T18:33:05.069Z,8.44
2024-03-25T18:38:29.419Z,8.29
2024-03-25T18:43:45.050Z,8.12
2024-03-25T18:48:54.092Z,7.98
2024-03-25T18:53:58.643Z,7.89
2024-03-25T18:59:01.610Z,7.86
2024-03-25T19:04:07.499Z,7.82
2024-03-25T19:09:12.232Z,7.86
2024-03-25T19:14:26.167Z,7.92
2024-03-25T19:19:30.926Z,7.97
2024-03-25T19:25:05.472Z,8.01
2024-03-25T19:30:11.232Z,8.03
2024-03-25T19:35:14.437Z,8.17
2024-03-25T19:40:17.476Z,8.63
2024-03-25T19:45:20.897Z,8.52
2024-03-25T19:50:23.831Z,8.34
2024-03-25T19:55:28.139Z,8.24
2024-03-25T20:00:31.406Z,8.22
2024-03-25T20:05:34.440Z,8.21
2024-03-25T20:10:37.556Z,8.20
2024-03-25T20:15:40.680Z,8.24
2024-03-25T20:20:46.340Z,8.46
2024-03-25T20:25:49.728Z,8.50
2024-03-25T20:30:52.695Z,8.41
2024-03-25T20:35:55.876Z,8.39
2024-03-25T20:40:58.890Z,8.35
2024-03-25T20:46:02.085Z,8.26
2024-03-25T20:51:05.392Z,8.09
2024-03-25T20:56:08.357Z,7.98
2024-03-25T21:01:11.274Z,7.92
2024-03-25T21:06:14.338Z,7.88
2024-03-25T21:11:17.497Z,7.85
2024-03-25T21:16:20.655Z,7.82
2024-03-25T21:21:23.557Z,7.80
2024-03-25T21:26:26.566Z,7.78
2024-03-25T21:31:29.826Z,7.81
2024-03-25T21:36:32.877Z,7.78
2024-03-25T21:41:36.823Z,7.81
2024-03-25T21:46:40.125Z,7.73
2024-03-25T21:51:43.045Z,7.61
2024-03-25T21:56:45.931Z,7.55
2024-03-25T22:01:48.927Z,7.49
2024-03-25T22:06:51.996Z,7.44
2024-03-25T22:11:54.905Z,7.35
2024-03-25T22:16:57.891Z,7.32
2024-03-25T22:22:00.775Z,7.24
2024-03-25T22:27:04.392Z,7.18
2024-03-25T22:32:08.050Z,7.06
2024-03-25T22:37:11.110Z,7.00
2024-03-25T22:42:14.479Z,6.88
2024-03-25T22:47:17.631Z,6.81
2024-03-25T22:52:21.196Z,6.73
2024-03-25T22:57:24.316Z,6.61
2024-03-25T23:02:27.269Z,6.46
2024-03-25T23:07:30.235Z,6.45
2024-03-25T23:12:33.216Z,6.46
2024-03-25T23:17:36.102Z,6.34
2024-03-25T23:22:39.007Z,6.27
2024-03-25T23:27:41.863Z,6.22
2024-03-25T23:32:44.773Z,6.11
2024-03-25T23:37:47.625Z,5.99
2024-03-25T23:42:50.476Z,5.87
2024-03-25T23:47:55.231Z,5.78
2024-03-25T23:52:58.240Z,5.84
2024-03-25T23:58:01.085Z,5.89
